Snowflake, Arizona
Current Conditions -  °F | °C
As of 7:35 AM on Thursday 27 Nov 2014 (Local Time) from KSOW Reporting Station
Clear Clear  
Wind Chill: 27°   Ceiling: Unl
Heat Index: 27°   Visibility: 10mi
Dew Point: 14°   Wind: 0mph
Humidity: 59%   Direction: NA
Pressure: 30.48"   Gusts: NA
Location:  34.51°N, 110.08°W
Report Text: KSOW 271435Z AUTO 00000KT 10SM CLR M03/M10 A3048 RMK AO2
Loading
Personal Weather Stations






























Interactive Weather Map New forecast layout! Learn more

10-Day Weather Forecast

Advertisements
Track Severe Weather on mobile